Highland Park, Louisiana
Current Conditions -  °F | °C
As of 3:53 PM on Tuesday 25 Nov 2014 (Local Time) from KMLU Reporting Station
Clear Clear  
Wind Chill: 55°   Ceiling: Unl
Heat Index: 55°   Visibility: 10mi
Dew Point: 27°   Wind: 3mph
Humidity: 34%   Direction: 330°NNW
Pressure: 30.2"   Gusts: NA
Location:  32.5473°N, 92.2007°W
Report Text: KMLU 252153Z 33003KT 10SM CLR 13/M03 A3020 RMK AO2 SLP227 T01281028
Loading
Personal Weather Stations






























Interactive Weather Map New forecast layout! Learn more

10-Day Weather Forecast

Advertisements
Track Severe Weather on mobile